createdAt,value
2023-03-15T00:01:21.380Z,6.40
2023-03-15T00:03:48.841Z,6.40
2023-03-15T00:06:16.162Z,6.50
2023-03-15T00:08:47.601Z,6.50
2023-03-15T00:11:16.237Z,6.50
2023-03-15T00:13:43.888Z,6.50
2023-03-15T00:16:12.282Z,6.50
2023-03-15T00:18:39.253Z,6.40
2023-03-15T00:21:06.221Z,6.50
2023-03-15T00:23:33.200Z,6.40
2023-03-15T00:26:00.172Z,6.50
2023-03-15T00:28:27.275Z,6.50
2023-03-15T00:31:08.085Z,6.50
2023-03-15T00:33:35.515Z,6.50
2023-03-15T00:36:08.283Z,6.50
2023-03-15T00:38:37.046Z,6.50
2023-03-15T00:41:12.484Z,6.50
2023-03-15T00:43:39.905Z,6.50
2023-03-15T00:46:07.039Z,6.50
2023-03-15T00:48:35.503Z,6.50
2023-03-15T00:51:18.313Z,6.50
2023-03-15T00:53:46.950Z,6.50
2023-03-15T00:56:19.884Z,6.50
2023-03-15T00:58:48.344Z,6.50
2023-03-15T01:01:18.204Z,6.50
2023-03-15T01:03:45.923Z,6.50
2023-03-15T01:06:16.558Z,6.50
2023-03-15T01:08:44.169Z,6.50
2023-03-15T01:11:14.590Z,6.50
2023-03-15T01:13:41.770Z,6.50
2023-03-15T01:16:10.654Z,6.60
2023-03-15T01:18:38.176Z,6.60
2023-03-15T01:21:10.002Z,6.50
2023-03-15T01:23:36.927Z,6.60
2023-03-15T01:26:05.452Z,6.50
2023-03-15T01:28:32.709Z,6.50
2023-03-15T01:31:00.191Z,6.50
2023-03-15T01:33:27.935Z,6.50
2023-03-15T01:36:03.242Z,6.40
2023-03-15T01:38:31.872Z,6.40
2023-03-15T01:40:59.255Z,6.30
2023-03-15T01:43:27.989Z,6.40
2023-03-15T01:46:02.308Z,6.40
2023-03-15T01:48:35.247Z,6.30
2023-03-15T01:51:17.039Z,6.30
2023-03-15T01:53:56.385Z,6.30
2023-03-15T01:56:24.094Z,6.30
2023-03-15T01:58:53.961Z,6.20
2023-03-15T02:01:21.790Z,6.20
2023-03-15T02:03:56.510Z,6.10
2023-03-15T02:06:24.118Z,6.10
2023-03-15T02:08:56.863Z,6.10
2023-03-15T02:11:25.992Z,6.10
2023-03-15T02:13:54.073Z,6.10
2023-03-15T02:16:22.245Z,6.10
2023-03-15T02:18:49.230Z,6.10
2023-03-15T02:21:40.360Z,6.20
2023-03-15T02:24:13.318Z,6.10
2023-03-15T02:26:48.572Z,6.20
2023-03-15T02:29:15.708Z,6.20
2023-03-15T02:31:43.173Z,6.20
2023-03-15T02:34:10.385Z,6.20
2023-03-15T02:36:37.571Z,6.10
2023-03-15T02:39:15.895Z,6.10
2023-03-15T02:41:48.675Z,6.20
2023-03-15T02:44:37.312Z,6.20
2023-03-15T02:47:12.111Z,6.20
2023-03-15T02:49:43.054Z,6.20
2023-03-15T02:52:10.544Z,6.20
2023-03-15T02:54:39.396Z,6.20
2023-03-15T02:57:06.674Z,6.20
2023-03-15T02:59:33.631Z,6.10
2023-03-15T03:02:00.840Z,6.10
2023-03-15T03:04:28.854Z,6.10
2023-03-15T03:06:55.865Z,6.10
2023-03-15T03:09:23.978Z,6.10
2023-03-15T03:11:51.075Z,6.10
2023-03-15T03:14:18.319Z,6.10
2023-03-15T03:16:45.337Z,6.10
2023-03-15T03:19:12.767Z,6.10
2023-03-15T03:21:39.872Z,6.10
2023-03-15T03:24:07.222Z,6.20
2023-03-15T03:26:34.211Z,6.20
2023-03-15T03:29:02.146Z,6.20
2023-03-15T03:31:29.206Z,6.10
2023-03-15T03:33:57.228Z,6.10
2023-03-15T03:36:25.687Z,6.10
2023-03-15T03:38:53.848Z,6.10
2023-03-15T03:41:21.480Z,6.10
2023-03-15T03:43:48.828Z,6.10
2023-03-15T03:46:15.944Z,6.10
2023-03-15T03:48:42.853Z,6.20
2023-03-15T03:51:11.415Z,6.10
2023-03-15T03:53:38.427Z,6.10
2023-03-15T03:56:06.514Z,6.10
2023-03-15T03:58:33.509Z,6.00
2023-03-15T04:01:01.164Z,6.00
2023-03-15T04:03:28.115Z,5.90
2023-03-15T04:05:59.674Z,6.00
2023-03-15T04:08:27.524Z,5.90
2023-03-15T04:10:56.410Z,5.90
2023-03-15T04:13:25.631Z,5.90
2023-03-15T04:15:57.763Z,5.80
2023-03-15T04:18:25.210Z,5.80
2023-03-15T04:20:54.800Z,5.80
2023-03-15T04:23:23.511Z,5.80
2023-03-15T04:25:58.118Z,5.70
2023-03-15T04:28:25.155Z,5.70
2023-03-15T04:30:58.866Z,5.60
2023-03-15T04:33:26.410Z,5.60
2023-03-15T04:35:53.474Z,5.60
2023-03-15T04:38:26.880Z,5.60
2023-03-15T04:40:54.976Z,5.60
2023-03-15T04:43:24.543Z,5.60
2023-03-15T04:45:51.976Z,5.50
2023-03-15T04:48:19.014Z,5.50
2023-03-15T04:50:45.971Z,5.50
2023-03-15T04:53:12.942Z,5.50
2023-03-15T04:55:39.932Z,5.40
2023-03-15T04:58:06.886Z,5.40
2023-03-15T05:00:34.913Z,5.40
2023-03-15T05:03:01.928Z,5.40
2023-03-15T05:05:29.507Z,5.40
2023-03-15T05:07:56.573Z,5.40
2023-03-15T05:10:23.556Z,5.40
2023-03-15T05:12:50.705Z,5.40
2023-03-15T05:15:18.370Z,5.40
2023-03-15T05:17:46.611Z,5.40
2023-03-15T05:20:15.717Z,5.40
2023-03-15T05:22:43.262Z,5.30
2023-03-15T05:25:11.450Z,5.30
2023-03-15T05:27:38.612Z,5.30
2023-03-15T05:30:09.365Z,5.30
2023-03-15T05:32:39.616Z,5.30
2023-03-15T05:35:07.854Z,5.30
2023-03-15T05:37:35.912Z,5.30
2023-03-15T05:40:04.637Z,5.30
2023-03-15T05:42:32.190Z,5.30
2023-03-15T05:44:59.315Z,5.40
2023-03-15T05:47:26.580Z,5.40
2023-03-15T05:49:53.569Z,5.30
2023-03-15T05:52:20.637Z,5.40
2023-03-15T05:54:47.610Z,5.40
2023-03-15T05:57:14.587Z,5.40
2023-03-15T05:59:41.603Z,5.40
2023-03-15T06:02:08.563Z,5.40
2023-03-15T06:04:36.631Z,5.40
2023-03-15T06:07:05.449Z,5.30
2023-03-15T06:09:32.545Z,5.30
2023-03-15T06:11:59.643Z,5.40
2023-03-15T06:14:27.991Z,5.40
2023-03-15T06:16:55.070Z,5.40
2023-03-15T06:19:22.818Z,5.40
2023-03-15T06:21:50.015Z,5.40
2023-03-15T06:24:16.993Z,5.50
2023-03-15T06:26:43.929Z,5.50
2023-03-15T06:29:10.943Z,5.50
2023-03-15T06:31:37.909Z,5.60
2023-03-15T06:34:04.843Z,5.60
2023-03-15T06:36:32.134Z,5.60
2023-03-15T06:38:59.190Z,5.70
2023-03-15T06:41:26.938Z,5.80
2023-03-15T06:43:53.981Z,6.20
2023-03-15T06:46:21.040Z,7.50
2023-03-15T06:48:49.036Z,8.90
2023-03-15T06:51:16.000Z,9.70
2023-03-15T06:53:43.004Z,10.10
2023-03-15T06:56:10.032Z,10.90
2023-03-15T06:58:37.080Z,12.10
2023-03-15T07:01:04.280Z,13.30
2023-03-15T07:03:31.281Z,14.70
2023-03-15T07:05:58.340Z,15.90
2023-03-15T07:08:26.042Z,17.10
2023-03-15T07:10:53.113Z,18.20
2023-03-15T07:13:20.464Z,19.20
2023-03-15T07:15:52.653Z,19.80
2023-03-15T07:18:19.832Z,20.30
2023-03-15T07:20:46.867Z,19.70
2023-03-15T07:23:13.929Z,18.50
2023-03-15T07:25:54.145Z,17.00
2023-03-15T07:28:23.465Z,15.50
2023-03-15T07:31:05.743Z,14.10
2023-03-15T07:33:34.212Z,13.10
2023-03-15T07:36:04.282Z,12.50
2023-03-15T07:38:31.582Z,13.50
2023-03-15T07:41:01.688Z,15.30
2023-03-15T07:43:29.492Z,16.60
2023-03-15T07:45:56.408Z,16.70
2023-03-15T07:48:23.692Z,16.00
2023-03-15T07:50:51.023Z,15.00
2023-03-15T07:53:18.430Z,14.90
2023-03-15T07:55:47.606Z,16.30
2023-03-15T07:58:14.932Z,18.20
2023-03-15T08:00:42.326Z,20.10
2023-03-15T08:03:09.394Z,21.70
2023-03-15T08:05:37.614Z,22.90
2023-03-15T08:08:05.315Z,24.00
2023-03-15T08:10:32.303Z,25.00
2023-03-15T08:12:59.249Z,25.80
2023-03-15T08:15:26.209Z,26.40
2023-03-15T08:17:53.227Z,26.90
2023-03-15T08:20:20.477Z,27.30
2023-03-15T08:22:49.495Z,27.80
2023-03-15T08:25:19.053Z,28.30
2023-03-15T08:27:46.186Z,28.70
2023-03-15T08:30:14.899Z,28.90
2023-03-15T08:32:43.937Z,29.30
2023-03-15T08:35:15.176Z,29.70
2023-03-15T08:37:47.196Z,30.10
2023-03-15T08:40:23.926Z,30.40
2023-03-15T08:42:51.976Z,30.50
2023-03-15T08:45:20.949Z,30.70
2023-03-15T08:47:48.030Z,30.60
2023-03-15T08:50:16.901Z,30.90
2023-03-15T08:52:44.351Z,31.30
2023-03-15T08:55:14.468Z,31.50
2023-03-15T08:57:42.501Z,31.50
2023-03-15T09:00:10.420Z,31.60
2023-03-15T09:02:37.866Z,31.80
2023-03-15T09:05:07.359Z,31.90
2023-03-15T09:07:34.868Z,32.00
2023-03-15T09:10:05.279Z,31.80
2023-03-15T09:12:32.504Z,30.90
2023-03-15T09:14:59.431Z,29.60
2023-03-15T09:17:26.509Z,27.50
2023-03-15T09:19:53.563Z,25.20
2023-03-15T09:22:34.733Z,23.20
2023-03-15T09:25:05.569Z,21.50
2023-03-15T09:27:33.251Z,19.90
2023-03-15T09:30:00.375Z,18.60
2023-03-15T09:32:27.536Z,17.60
2023-03-15T09:34:54.503Z,16.90
2023-03-15T09:37:22.069Z,16.20
2023-03-15T09:39:49.362Z,15.90
2023-03-15T09:42:49.560Z,16.40
2023-03-15T09:45:37.844Z,18.70
2023-03-15T09:48:20.302Z,21.50
2023-03-15T09:51:08.419Z,23.90
2023-03-15T09:54:21.485Z,25.50
2023-03-15T09:57:02.505Z,26.70
2023-03-15T09:59:36.146Z,27.70
2023-03-15T10:02:29.089Z,28.30
2023-03-15T10:05:10.090Z,28.80
2023-03-15T10:07:37.237Z,29.30
2023-03-15T10:10:17.829Z,29.40
2023-03-15T10:12:51.960Z,29.80
2023-03-15T10:15:36.687Z,29.70
2023-03-15T10:18:12.938Z,28.60
2023-03-15T10:20:55.868Z,27.90
2023-03-15T10:23:53.726Z,26.60
2023-03-15T10:26:26.914Z,25.80
2023-03-15T10:28:55.154Z,26.40
2023-03-15T10:31:36.894Z,27.40
2023-03-15T10:34:14.184Z,27.20
2023-03-15T10:36:50.071Z,25.80
2023-03-15T10:39:17.273Z,24.10
2023-03-15T10:41:47.617Z,22.30
2023-03-15T10:44:19.269Z,20.90
2023-03-15T10:47:22.136Z,21.00
2023-03-15T10:49:55.132Z,21.40
2023-03-15T10:52:35.823Z,21.10
2023-03-15T10:55:12.594Z,20.10
2023-03-15T10:57:50.780Z,19.20
2023-03-15T11:00:25.641Z,19.20
2023-03-15T11:03:05.901Z,20.20
2023-03-15T11:05:41.100Z,21.40
2023-03-15T11:08:14.419Z,22.00
2023-03-15T11:10:42.036Z,22.60
2023-03-15T11:13:11.992Z,23.30
2023-03-15T11:15:40.649Z,23.70
2023-03-15T11:18:18.151Z,24.00
2023-03-15T11:20:45.988Z,24.00
2023-03-15T11:23:25.754Z,24.00
2023-03-15T11:25:53.992Z,23.90
2023-03-15T11:28:26.483Z,23.70
2023-03-15T11:30:54.699Z,23.90
2023-03-15T11:33:53.770Z,24.00
2023-03-15T11:36:28.216Z,23.80
2023-03-15T11:38:55.848Z,23.10
2023-03-15T11:41:30.086Z,22.60
2023-03-15T11:44:22.007Z,22.30
2023-03-15T11:47:00.294Z,22.20
2023-03-15T11:49:48.530Z,22.10
2023-03-15T11:52:17.454Z,21.90
2023-03-15T11:54:46.008Z,21.80
2023-03-15T11:57:45.331Z,21.80
2023-03-15T12:00:36.780Z,21.50
2023-03-15T12:03:36.902Z,21.10
2023-03-15T12:06:34.644Z,20.50
2023-03-15T12:09:02.037Z,20.30
2023-03-15T12:11:28.954Z,20.00
2023-03-15T12:13:58.987Z,19.40
2023-03-15T12:16:28.289Z,19.10
2023-03-15T12:18:59.922Z,18.90
2023-03-15T12:21:40.045Z,18.70
2023-03-15T12:24:14.646Z,18.60
2023-03-15T12:27:02.537Z,18.50
2023-03-15T12:29:33.002Z,18.40
2023-03-15T12:32:11.618Z,18.30
2023-03-15T12:34:44.606Z,18.10
2023-03-15T12:37:31.705Z,17.90
2023-03-15T12:40:26.630Z,17.60
2023-03-15T12:42:57.510Z,17.30
2023-03-15T12:45:37.290Z,17.10
2023-03-15T12:48:10.020Z,17.00
2023-03-15T12:50:50.926Z,17.10
2023-03-15T12:53:37.323Z,17.20
2023-03-15T12:56:40.491Z,17.20
2023-03-15T12:59:38.298Z,17.40
2023-03-15T13:02:32.472Z,17.40
2023-03-15T13:05:17.712Z,17.30
2023-03-15T13:08:17.147Z,17.30
2023-03-15T13:10:59.071Z,17.30
2023-03-15T13:13:33.860Z,17.20
2023-03-15T13:16:30.189Z,17.00
2023-03-15T13:19:22.971Z,16.90
2023-03-15T13:22:15.574Z,16.90
2023-03-15T13:25:05.879Z,16.80
2023-03-15T13:27:52.085Z,16.80
2023-03-15T13:30:33.232Z,16.50
2023-03-15T13:33:27.935Z,16.50
2023-03-15T13:36:03.837Z,16.10
2023-03-15T13:38:42.453Z,15.90
2023-03-15T13:41:24.369Z,15.90
2023-03-15T13:43:53.746Z,16.10
2023-03-15T13:46:23.408Z,16.50
2023-03-15T13:48:52.085Z,16.70
2023-03-15T13:51:24.544Z,16.70
2023-03-15T13:53:55.499Z,16.60
2023-03-15T13:56:37.410Z,16.30
2023-03-15T13:59:12.539Z,16.10
2023-03-15T14:01:42.621Z,16.20
2023-03-15T14:04:15.763Z,16.30
2023-03-15T14:06:45.747Z,16.40
2023-03-15T14:09:26.248Z,16.40
2023-03-15T14:12:07.299Z,16.40
2023-03-15T14:14:37.742Z,16.30
2023-03-15T14:17:50.734Z,16.10
2023-03-15T14:20:17.993Z,15.80
2023-03-15T14:22:44.972Z,15.80
2023-03-15T14:25:22.893Z,15.90
2023-03-15T14:27:49.836Z,15.80
2023-03-15T14:30:25.813Z,15.80
2023-03-15T14:32:55.707Z,15.70
2023-03-15T14:35:22.646Z,15.60
2023-03-15T14:38:07.217Z,15.50
2023-03-15T14:40:39.295Z,15.40
2023-03-15T14:43:08.359Z,15.10
2023-03-15T14:45:39.151Z,14.90
2023-03-15T14:48:12.602Z,14.80
2023-03-15T14:50:42.289Z,14.70
2023-03-15T14:53:14.712Z,14.50
2023-03-15T14:55:41.735Z,14.30
2023-03-15T14:58:17.586Z,14.10
2023-03-15T15:00:47.817Z,13.90
2023-03-15T15:03:32.041Z,13.90
2023-03-15T15:06:00.675Z,13.80
2023-03-15T15:08:27.742Z,13.70
2023-03-15T15:10:57.532Z,13.60
2023-03-15T15:13:28.473Z,13.50
2023-03-15T15:15:57.016Z,13.50
2023-03-15T15:18:31.180Z,13.50
2023-03-15T15:21:04.470Z,13.50
2023-03-15T15:23:41.891Z,13.40
2023-03-15T15:26:20.950Z,13.40
2023-03-15T15:28:49.677Z,13.30
2023-03-15T15:31:22.912Z,13.20
2023-03-15T15:33:54.511Z,13.20
2023-03-15T15:36:35.788Z,13.10
2023-03-15T15:39:07.253Z,12.90
2023-03-15T15:41:35.226Z,12.80
2023-03-15T15:44:02.283Z,12.70
2023-03-15T15:46:29.350Z,12.60
2023-03-15T15:48:56.416Z,12.40
2023-03-15T15:51:35.116Z,12.30
2023-03-15T15:54:02.629Z,12.10
2023-03-15T15:56:40.011Z,12.00
2023-03-15T15:59:13.740Z,11.90
2023-03-15T16:01:56.740Z,11.80
2023-03-15T16:04:26.424Z,11.70
2023-03-15T16:06:58.790Z,11.70
2023-03-15T16:09:28.393Z,11.60
2023-03-15T16:11:55.821Z,11.50
2023-03-15T16:14:22.834Z,11.50
2023-03-15T16:16:50.183Z,11.40
2023-03-15T16:19:17.265Z,11.30
2023-03-15T16:21:50.903Z,11.20
2023-03-15T16:24:26.365Z,11.20
2023-03-15T16:27:00.197Z,11.10
2023-03-15T16:29:36.495Z,11.10
2023-03-15T16:32:15.888Z,11.00
2023-03-15T16:34:47.039Z,10.90
2023-03-15T16:37:22.300Z,10.70
2023-03-15T16:39:52.988Z,10.80
2023-03-15T16:42:20.704Z,10.70
2023-03-15T16:44:47.720Z,10.80
2023-03-15T16:47:14.658Z,10.80
2023-03-15T16:49:41.597Z,10.80
2023-03-15T16:52:10.946Z,10.80
2023-03-15T16:54:41.592Z,10.70
2023-03-15T16:57:22.226Z,10.60
2023-03-15T16:59:49.877Z,10.60
2023-03-15T17:02:21.540Z,10.60
2023-03-15T17:04:48.711Z,10.60
2023-03-15T17:07:17.262Z,10.60
2023-03-15T17:09:47.481Z,10.50
2023-03-15T17:12:24.844Z,10.50
2023-03-15T17:14:53.980Z,10.50
2023-03-15T17:17:21.007Z,10.50
2023-03-15T17:19:48.449Z,10.50
2023-03-15T17:22:19.303Z,10.50
2023-03-15T17:24:47.743Z,10.50
2023-03-15T17:27:34.479Z,10.40
2023-03-15T17:30:14.359Z,10.30
2023-03-15T17:32:41.828Z,10.30
2023-03-15T17:35:09.721Z,10.20
2023-03-15T17:37:37.883Z,10.20
2023-03-15T17:40:12.550Z,10.10
2023-03-15T17:42:40.170Z,10.10
2023-03-15T17:45:25.454Z,10.10
2023-03-15T17:47:54.534Z,10.10
2023-03-15T17:50:23.231Z,10.00
2023-03-15T17:52:55.200Z,10.00
2023-03-15T17:55:24.707Z,10.00
2023-03-15T17:57:55.119Z,10.00
2023-03-15T18:00:24.074Z,9.90
2023-03-15T18:02:56.175Z,9.90
2023-03-15T18:05:28.646Z,9.80
2023-03-15T18:07:58.912Z,9.80
2023-03-15T18:10:33.545Z,9.70
2023-03-15T18:13:00.597Z,9.60
2023-03-15T18:15:27.646Z,9.60
2023-03-15T18:17:54.903Z,9.60
2023-03-15T18:20:24.801Z,9.50
2023-03-15T18:22:52.372Z,9.50
2023-03-15T18:25:25.615Z,9.50
2023-03-15T18:27:53.063Z,9.60
2023-03-15T18:30:22.621Z,9.60
2023-03-15T18:32:51.060Z,9.60
2023-03-15T18:35:25.168Z,9.50
2023-03-15T18:37:54.198Z,9.50
2023-03-15T18:40:21.761Z,9.40
2023-03-15T18:42:48.699Z,9.40
2023-03-15T18:45:38.699Z,9.40
2023-03-15T18:48:05.959Z,9.40
2023-03-15T18:50:33.853Z,9.40
2023-03-15T18:53:01.053Z,9.40
2023-03-15T18:55:28.131Z,9.30
2023-03-15T18:57:55.818Z,9.30
2023-03-15T19:00:29.642Z,9.20
2023-03-15T19:02:58.899Z,9.10
2023-03-15T19:05:27.194Z,9.00
2023-03-15T19:07:54.628Z,9.00
2023-03-15T19:10:23.151Z,8.90
2023-03-15T19:12:52.311Z,8.90
2023-03-15T19:15:21.575Z,8.90
2023-03-15T19:17:51.062Z,8.90
2023-03-15T19:20:22.743Z,8.90
2023-03-15T19:22:51.196Z,8.80
2023-03-15T19:25:18.342Z,8.80
2023-03-15T19:27:45.485Z,8.80
2023-03-15T19:30:17.057Z,8.80
2023-03-15T19:32:48.564Z,8.70
2023-03-15T19:35:17.738Z,8.70
2023-03-15T19:37:44.972Z,8.70
2023-03-15T19:40:14.144Z,8.70
2023-03-15T19:42:41.647Z,8.70
2023-03-15T19:45:09.819Z,8.70
2023-03-15T19:47:36.902Z,8.60
2023-03-15T19:50:05.470Z,8.60
2023-03-15T19:52:33.649Z,8.60
2023-03-15T19:55:01.372Z,8.50
2023-03-15T19:57:28.443Z,8.50
2023-03-15T19:59:55.369Z,8.50
2023-03-15T20:02:22.551Z,8.50
2023-03-15T20:04:49.694Z,8.40
2023-03-15T20:07:17.292Z,8.40
2023-03-15T20:09:44.330Z,8.40
2023-03-15T20:12:12.988Z,8.40
2023-03-15T20:14:40.006Z,8.30
2023-03-15T20:17:07.413Z,8.30
2023-03-15T20:19:36.059Z,8.30
2023-03-15T20:22:03.156Z,8.20
2023-03-15T20:24:30.190Z,8.20
2023-03-15T20:26:57.167Z,8.20
2023-03-15T20:29:24.172Z,8.20
2023-03-15T20:31:53.442Z,8.20
2023-03-15T20:34:22.166Z,8.10
2023-03-15T20:36:49.220Z,8.10
2023-03-15T20:39:18.420Z,8.10
2023-03-15T20:41:45.376Z,8.10
2023-03-15T20:44:12.827Z,8.00
2023-03-15T20:46:40.069Z,8.00
2023-03-15T20:49:07.412Z,8.00
2023-03-15T20:51:34.513Z,8.00
2023-03-15T20:54:01.532Z,8.00
2023-03-15T20:56:28.579Z,8.00
2023-03-15T20:58:55.556Z,8.00
2023-03-15T21:01:22.600Z,7.90
2023-03-15T21:03:49.599Z,7.90
2023-03-15T21:06:16.782Z,7.90
2023-03-15T21:08:44.252Z,7.90
2023-03-15T21:11:11.502Z,7.80
2023-03-15T21:13:38.502Z,7.80
2023-03-15T21:16:06.004Z,7.80
2023-03-15T21:18:35.723Z,7.80
2023-03-15T21:21:05.634Z,7.80
2023-03-15T21:23:32.660Z,7.80
2023-03-15T21:26:02.245Z,7.70
2023-03-15T21:28:30.121Z,7.70
2023-03-15T21:30:58.870Z,7.70
2023-03-15T21:33:27.989Z,7.70
2023-03-15T21:35:55.944Z,7.60
2023-03-15T21:38:24.063Z,7.60
2023-03-15T21:40:59.418Z,7.60
2023-03-15T21:43:32.592Z,7.60
2023-03-15T21:46:05.266Z,7.60
2023-03-15T21:48:32.569Z,7.60
2023-03-15T21:51:02.039Z,7.60
2023-03-15T21:53:30.729Z,7.60
2023-03-15T21:55:58.971Z,7.70
2023-03-15T21:58:27.059Z,7.60
2023-03-15T22:01:02.597Z,7.60
2023-03-15T22:03:29.701Z,7.70
2023-03-15T22:05:57.197Z,7.60
2023-03-15T22:08:25.284Z,7.70
2023-03-15T22:10:53.687Z,7.70
2023-03-15T22:13:21.022Z,7.70
2023-03-15T22:15:48.000Z,7.70
2023-03-15T22:18:15.065Z,7.60
2023-03-15T22:20:42.030Z,7.60
2023-03-15T22:23:10.301Z,7.60
2023-03-15T22:25:40.184Z,7.60
2023-03-15T22:28:07.299Z,7.60
2023-03-15T22:30:34.473Z,7.60
2023-03-15T22:33:01.605Z,7.60
2023-03-15T22:35:28.871Z,7.60
2023-03-15T22:37:57.924Z,7.60
2023-03-15T22:40:27.347Z,7.60
2023-03-15T22:42:54.813Z,7.60
2023-03-15T22:45:21.907Z,7.60
2023-03-15T22:47:49.686Z,7.60
2023-03-15T22:50:16.865Z,7.60
2023-03-15T22:52:44.027Z,7.60
2023-03-15T22:55:12.499Z,7.60
2023-03-15T22:57:39.943Z,7.60
2023-03-15T23:00:13.939Z,7.60
2023-03-15T23:02:45.481Z,7.60
2023-03-15T23:05:13.761Z,7.60
2023-03-15T23:07:41.576Z,7.60
2023-03-15T23:10:09.606Z,7.60
2023-03-15T23:12:36.901Z,7.60
2023-03-15T23:15:04.769Z,7.60
2023-03-15T23:17:32.103Z,7.60
2023-03-15T23:19:59.118Z,7.60
2023-03-15T23:22:26.121Z,7.60
2023-03-15T23:24:53.079Z,7.60
2023-03-15T23:27:20.048Z,7.60
2023-03-15T23:29:54.454Z,7.60
2023-03-15T23:32:22.491Z,7.60
2023-03-15T23:34:49.547Z,7.50
2023-03-15T23:37:16.833Z,7.50
2023-03-15T23:39:43.974Z,7.50
2023-03-15T23:42:11.452Z,7.50
2023-03-15T23:44:39.040Z,7.50
2023-03-15T23:47:06.649Z,7.50
2023-03-15T23:49:34.435Z,7.50
2023-03-15T23:52:05.696Z,7.50
2023-03-15T23:54:39.728Z,7.50
2023-03-15T23:57:08.244Z,7.50
2023-03-15T23:59:36.479Z,7.50
